sensor_id;sensor_type;location;lat;lon;timestamp;temperature;humidity
69464;DHT22;56665;41.106;16.688;2023-07-20T00:01:36;30.96;50.12
69464;DHT22;56665;41.106;16.688;2023-07-20T00:04:41;30.91;50.14
69464;DHT22;56665;41.106;16.688;2023-07-20T00:07:47;30.84;50.28
69464;DHT22;56665;41.106;16.688;2023-07-20T00:10:51;30.77;50.37
69464;DHT22;56665;41.106;16.688;2023-07-20T00:13:55;30.72;50.36
69464;DHT22;56665;41.106;16.688;2023-07-20T00:16:58;30.71;50.04
69464;DHT22;56665;41.106;16.688;2023-07-20T00:20:02;30.69;49.68
69464;DHT22;56665;41.106;16.688;2023-07-20T00:23:09;30.69;49.16
69464;DHT22;56665;41.106;16.688;2023-07-20T00:26:13;30.68;48.89
69464;DHT22;56665;41.106;16.688;2023-07-20T00:29:17;30.65;48.74
69464;DHT22;56665;41.106;16.688;2023-07-20T00:32:21;30.69;48.62
69464;DHT22;56665;41.106;16.688;2023-07-20T00:35:25;30.71;48.39
69464;DHT22;56665;41.106;16.688;2023-07-20T00:38:28;30.69;48.35
69464;DHT22;56665;41.106;16.688;2023-07-20T00:41:32;30.68;47.84
69464;DHT22;56665;41.106;16.688;2023-07-20T00:44:36;30.68;47.32
69464;DHT22;56665;41.106;16.688;2023-07-20T00:47:42;30.64;47.09
69464;DHT22;56665;41.106;16.688;2023-07-20T00:50:46;30.63;47.97
69464;DHT22;56665;41.106;16.688;2023-07-20T00:53:52;30.56;48.17
69464;DHT22;56665;41.106;16.688;2023-07-20T00:56:56;30.51;47.72
69464;DHT22;56665;41.106;16.688;2023-07-20T01:00:01;30.48;46.45
69464;DHT22;56665;41.106;16.688;2023-07-20T01:03:05;30.51;45.74
69464;DHT22;56665;41.106;16.688;2023-07-20T01:09:55;30.65;44.56
69464;DHT22;56665;41.106;16.688;2023-07-20T01:13:03;30.65;44.26
69464;DHT22;56665;41.106;16.688;2023-07-20T01:16:09;30.60;44.42
69464;DHT22;56665;41.106;16.688;2023-07-20T01:19:13;30.58;44.36
69464;DHT22;56665;41.106;16.688;2023-07-20T01:32:25;30.38;43.96
69464;DHT22;56665;41.106;16.688;2023-07-20T01:35:32;30.34;43.47
69464;DHT22;56665;41.106;16.688;2023-07-20T01:38:37;30.44;42.66
69464;DHT22;56665;41.106;16.688;2023-07-20T01:41:43;30.50;42.23
69464;DHT22;56665;41.106;16.688;2023-07-20T01:44:46;30.63;41.47
69464;DHT22;56665;41.106;16.688;2023-07-20T01:47:50;30.65;41.11
69464;DHT22;56665;41.106;16.688;2023-07-20T01:50:55;30.65;41.07
69464;DHT22;56665;41.106;16.688;2023-07-20T01:53:59;30.67;40.82
69464;DHT22;56665;41.106;16.688;2023-07-20T01:57:03;30.61;40.89
69464;DHT22;56665;41.106;16.688;2023-07-20T02:00:07;30.57;41.22
69464;DHT22;56665;41.106;16.688;2023-07-20T02:03:19;30.47;41.34
69464;DHT22;56665;41.106;16.688;2023-07-20T02:06:26;30.43;41.22
69464;DHT22;56665;41.106;16.688;2023-07-20T02:09:29;30.44;40.55
69464;DHT22;56665;41.106;16.688;2023-07-20T02:12:34;30.44;40.08
69464;DHT22;56665;41.106;16.688;2023-07-20T02:15:37;30.47;39.32
69464;DHT22;56665;41.106;16.688;2023-07-20T02:18:42;30.51;39.25
69464;DHT22;56665;41.106;16.688;2023-07-20T02:21:45;30.51;38.99
69464;DHT22;56665;41.106;16.688;2023-07-20T02:24:50;30.48;39.27
69464;DHT22;56665;41.106;16.688;2023-07-20T02:27:56;30.41;39.37
69464;DHT22;56665;41.106;16.688;2023-07-20T02:30:59;30.36;39.85
69464;DHT22;56665;41.106;16.688;2023-07-20T02:34:05;30.24;39.60
69464;DHT22;56665;41.106;16.688;2023-07-20T02:37:09;30.24;39.62
69464;DHT22;56665;41.106;16.688;2023-07-20T02:40:16;30.17;39.71
69464;DHT22;56665;41.106;16.688;2023-07-20T02:43:22;30.17;39.63
69464;DHT22;56665;41.106;16.688;2023-07-20T02:46:25;30.17;39.52
69464;DHT22;56665;41.106;16.688;2023-07-20T02:49:30;30.17;40.11
69464;DHT22;56665;41.106;16.688;2023-07-20T02:52:34;30.06;40.73
69464;DHT22;56665;41.106;16.688;2023-07-20T02:55:37;29.98;40.76
69464;DHT22;56665;41.106;16.688;2023-07-20T02:58:41;29.92;40.57
69464;DHT22;56665;41.106;16.688;2023-07-20T03:01:49;29.79;40.75
69464;DHT22;56665;41.106;16.688;2023-07-20T03:04:52;29.72;40.92
69464;DHT22;56665;41.106;16.688;2023-07-20T03:07:57;29.70;41.02
69464;DHT22;56665;41.106;16.688;2023-07-20T03:11:06;29.73;40.78
69464;DHT22;56665;41.106;16.688;2023-07-20T03:14:11;29.72;40.25
69464;DHT22;56665;41.106;16.688;2023-07-20T03:17:16;29.76;39.85
69464;DHT22;56665;41.106;16.688;2023-07-20T03:20:23;29.85;39.59
69464;DHT22;56665;41.106;16.688;2023-07-20T03:23:26;29.90;39.22
69464;DHT22;56665;41.106;16.688;2023-07-20T03:26:30;29.96;39.37
69464;DHT22;56665;41.106;16.688;2023-07-20T03:29:34;29.98;38.98
69464;DHT22;56665;41.106;16.688;2023-07-20T03:32:38;30.00;39.11
69464;DHT22;56665;41.106;16.688;2023-07-20T03:35:42;29.99;39.07
69464;DHT22;56665;41.106;16.688;2023-07-20T03:38:47;29.95;39.22
69464;DHT22;56665;41.106;16.688;2023-07-20T03:41:50;29.92;39.15
69464;DHT22;56665;41.106;16.688;2023-07-20T03:44:54;29.96;39.34
69464;DHT22;56665;41.106;16.688;2023-07-20T03:47:58;29.96;39.05
69464;DHT22;56665;41.106;16.688;2023-07-20T03:51:02;29.99;39.07
69464;DHT22;56665;41.106;16.688;2023-07-20T03:54:06;30.03;38.98
69464;DHT22;56665;41.106;16.688;2023-07-20T03:57:09;30.14;38.71
69464;DHT22;56665;41.106;16.688;2023-07-20T04:00:13;30.21;38.70
69464;DHT22;56665;41.106;16.688;2023-07-20T04:03:19;30.33;38.12
69464;DHT22;56665;41.106;16.688;2023-07-20T04:06:23;30.41;38.08
69464;DHT22;56665;41.106;16.688;2023-07-20T04:09:27;30.50;37.86
69464;DHT22;56665;41.106;16.688;2023-07-20T04:12:30;30.56;37.87
69464;DHT22;56665;41.106;16.688;2023-07-20T04:15:34;30.68;37.52
69464;DHT22;56665;41.106;16.688;2023-07-20T04:18:38;30.75;37.63
69464;DHT22;56665;41.106;16.688;2023-07-20T04:21:42;30.79;37.57
69464;DHT22;56665;41.106;16.688;2023-07-20T04:24:46;30.84;37.62
69464;DHT22;56665;41.106;16.688;2023-07-20T04:27:49;30.94;37.45
69464;DHT22;56665;41.106;16.688;2023-07-20T04:31:09;31.14;37.35
69464;DHT22;56665;41.106;16.688;2023-07-20T04:34:13;31.26;37.37
69464;DHT22;56665;41.106;16.688;2023-07-20T04:37:19;31.43;37.00
69464;DHT22;56665;41.106;16.688;2023-07-20T04:40:23;31.64;36.84
69464;DHT22;56665;41.106;16.688;2023-07-20T04:43:29;31.78;36.53
69464;DHT22;56665;41.106;16.688;2023-07-20T04:46:34;31.95;36.29
69464;DHT22;56665;41.106;16.688;2023-07-20T04:49:39;32.05;36.19
69464;DHT22;56665;41.106;16.688;2023-07-20T04:52:43;32.11;36.03
69464;DHT22;56665;41.106;16.688;2023-07-20T04:55:50;32.17;35.89
69464;DHT22;56665;41.106;16.688;2023-07-20T04:58:55;32.20;36.21
69464;DHT22;56665;41.106;16.688;2023-07-20T05:01:58;32.32;36.22
69464;DHT22;56665;41.106;16.688;2023-07-20T05:05:03;32.44;36.46
69464;DHT22;56665;41.106;16.688;2023-07-20T05:08:09;32.48;36.56
69464;DHT22;56665;41.106;16.688;2023-07-20T05:11:14;32.71;36.32
69464;DHT22;56665;41.106;16.688;2023-07-20T05:14:18;32.96;35.97
69464;DHT22;56665;41.106;16.688;2023-07-20T05:17:23;33.19;35.74
69464;DHT22;56665;41.106;16.688;2023-07-20T05:20:29;33.35;35.60
69464;DHT22;56665;41.106;16.688;2023-07-20T05:23:35;33.44;35.51
69464;DHT22;56665;41.106;16.688;2023-07-20T05:26:40;33.72;35.21
69464;DHT22;56665;41.106;16.688;2023-07-20T05:29:45;33.97;34.86
69464;DHT22;56665;41.106;16.688;2023-07-20T05:32:48;34.23;34.67
69464;DHT22;56665;41.106;16.688;2023-07-20T05:35:55;34.63;34.28
69464;DHT22;56665;41.106;16.688;2023-07-20T05:38:59;34.84;33.92
69464;DHT22;56665;41.106;16.688;2023-07-20T05:42:04;35.01;33.73
69464;DHT22;56665;41.106;16.688;2023-07-20T05:45:08;35.06;33.68
69464;DHT22;56665;41.106;16.688;2023-07-20T05:48:12;35.08;33.87
69464;DHT22;56665;41.106;16.688;2023-07-20T05:51:16;35.28;34.04
69464;DHT22;56665;41.106;16.688;2023-07-20T05:54:24;35.51;33.53
69464;DHT22;56665;41.106;16.688;2023-07-20T05:57:27;35.65;33.58
69464;DHT22;56665;41.106;16.688;2023-07-20T06:00:31;35.96;33.22
69464;DHT22;56665;41.106;16.688;2023-07-20T06:03:35;36.16;32.88
69464;DHT22;56665;41.106;16.688;2023-07-20T06:06:39;36.37;32.66
69464;DHT22;56665;41.106;16.688;2023-07-20T06:09:42;36.68;32.58
69464;DHT22;56665;41.106;16.688;2023-07-20T06:12:46;36.96;32.04
69464;DHT22;56665;41.106;16.688;2023-07-20T06:15:50;37.19;31.53
69464;DHT22;56665;41.106;16.688;2023-07-20T06:18:53;37.45;30.63
69464;DHT22;56665;41.106;16.688;2023-07-20T06:21:57;37.63;30.23
69464;DHT22;56665;41.106;16.688;2023-07-20T06:25:02;38.00;29.48
69464;DHT22;56665;41.106;16.688;2023-07-20T06:28:06;38.37;28.79
69464;DHT22;56665;41.106;16.688;2023-07-20T06:31:11;38.55;28.44
69464;DHT22;56665;41.106;16.688;2023-07-20T06:34:16;38.83;28.13
69464;DHT22;56665;41.106;16.688;2023-07-20T06:37:20;39.19;27.60
69464;DHT22;56665;41.106;16.688;2023-07-20T06:40:23;39.45;27.50
69464;DHT22;56665;41.106;16.688;2023-07-20T06:43:28;39.64;27.24
69464;DHT22;56665;41.106;16.688;2023-07-20T06:46:32;39.90;27.01
69464;DHT22;56665;41.106;16.688;2023-07-20T06:49:36;40.07;26.84
69464;DHT22;56665;41.106;16.688;2023-07-20T06:52:39;40.32;26.83
69464;DHT22;56665;41.106;16.688;2023-07-20T06:55:44;40.70;26.59
69464;DHT22;56665;41.106;16.688;2023-07-20T06:58:48;40.92;26.39
69464;DHT22;56665;41.106;16.688;2023-07-20T07:01:53;41.23;26.22
69464;DHT22;56665;41.106;16.688;2023-07-20T07:04:56;41.26;26.05
69464;DHT22;56665;41.106;16.688;2023-07-20T07:08:01;41.62;25.93
69464;DHT22;56665;41.106;16.688;2023-07-20T07:11:05;41.98;25.36
69464;DHT22;56665;41.106;16.688;2023-07-20T07:14:10;42.31;25.15
69464;DHT22;56665;41.106;16.688;2023-07-20T07:17:13;42.71;24.87
69464;DHT22;56665;41.106;16.688;2023-07-20T07:20:17;43.23;24.32
69464;DHT22;56665;41.106;16.688;2023-07-20T07:23:21;43.86;24.10
69464;DHT22;56665;41.106;16.688;2023-07-20T07:26:25;44.87;23.71
69464;DHT22;56665;41.106;16.688;2023-07-20T07:29:29;46.00;22.70
69464;DHT22;56665;41.106;16.688;2023-07-20T07:32:33;47.29;21.77
69464;DHT22;56665;41.106;16.688;2023-07-20T07:35:38;48.78;20.64
69464;DHT22;56665;41.106;16.688;2023-07-20T07:38:42;49.57;20.04
69464;DHT22;56665;41.106;16.688;2023-07-20T07:41:47;50.24;19.61
69464;DHT22;56665;41.106;16.688;2023-07-20T07:44:50;50.82;19.34
69464;DHT22;56665;41.106;16.688;2023-07-20T07:47:54;51.25;19.20
69464;DHT22;56665;41.106;16.688;2023-07-20T07:51:02;51.54;18.89
69464;DHT22;56665;41.106;16.688;2023-07-20T07:54:06;51.91;18.87
69464;DHT22;56665;41.106;16.688;2023-07-20T07:57:13;52.24;18.66
69464;DHT22;56665;41.106;16.688;2023-07-20T08:00:18;52.07;18.37
69464;DHT22;56665;41.106;16.688;2023-07-20T08:03:22;52.36;18.53
69464;DHT22;56665;41.106;16.688;2023-07-20T08:06:27;52.32;18.33
69464;DHT22;56665;41.106;16.688;2023-07-20T08:09:31;52.80;18.28
69464;DHT22;56665;41.106;16.688;2023-07-20T08:12:35;52.86;18.28
69464;DHT22;56665;41.106;16.688;2023-07-20T08:15:39;52.93;18.27
69464;DHT22;56665;41.106;16.688;2023-07-20T08:18:43;52.85;18.41
69464;DHT22;56665;41.106;16.688;2023-07-20T08:21:47;52.59;18.47
69464;DHT22;56665;41.106;16.688;2023-07-20T08:24:51;52.36;18.57
69464;DHT22;56665;41.106;16.688;2023-07-20T08:27:55;52.58;19.04
69464;DHT22;56665;41.106;16.688;2023-07-20T08:30:58;52.43;19.97
69464;DHT22;56665;41.106;16.688;2023-07-20T08:34:02;52.48;20.16
69464;DHT22;56665;41.106;16.688;2023-07-20T08:37:06;51.97;21.14
69464;DHT22;56665;41.106;16.688;2023-07-20T08:40:10;51.74;21.27
69464;DHT22;56665;41.106;16.688;2023-07-20T08:43:14;51.14;22.23
69464;DHT22;56665;41.106;16.688;2023-07-20T08:46:22;51.02;23.94
69464;DHT22;56665;41.106;16.688;2023-07-20T08:49:26;49.84;24.29
69464;DHT22;56665;41.106;16.688;2023-07-20T08:52:31;48.82;24.97
69464;DHT22;56665;41.106;16.688;2023-07-20T08:55:37;48.95;24.37
69464;DHT22;56665;41.106;16.688;2023-07-20T08:58:43;49.07;24.45
69464;DHT22;56665;41.106;16.688;2023-07-20T09:01:47;49.25;23.76
69464;DHT22;56665;41.106;16.688;2023-07-20T09:04:51;49.09;23.72
69464;DHT22;56665;41.106;16.688;2023-07-20T09:07:55;48.52;24.18
69464;DHT22;56665;41.106;16.688;2023-07-20T09:10:58;48.37;24.34
69464;DHT22;56665;41.106;16.688;2023-07-20T09:14:09;48.20;24.43
69464;DHT22;56665;41.106;16.688;2023-07-20T09:17:14;48.18;24.49
69464;DHT22;56665;41.106;16.688;2023-07-20T09:20:18;47.83;24.72
69464;DHT22;56665;41.106;16.688;2023-07-20T09:23:30;47.60;24.22
69464;DHT22;56665;41.106;16.688;2023-07-20T09:26:40;47.35;24.68
69464;DHT22;56665;41.106;16.688;2023-07-20T09:29:49;47.08;25.52
69464;DHT22;56665;41.106;16.688;2023-07-20T09:32:53;46.52;25.96
69464;DHT22;56665;41.106;16.688;2023-07-20T09:36:02;46.48;25.76
69464;DHT22;56665;41.106;16.688;2023-07-20T09:39:06;46.28;25.82
69464;DHT22;56665;41.106;16.688;2023-07-20T09:42:12;45.93;26.26
69464;DHT22;56665;41.106;16.688;2023-07-20T09:45:19;45.92;26.26
69464;DHT22;56665;41.106;16.688;2023-07-20T09:48:25;45.68;26.03
69464;DHT22;56665;41.106;16.688;2023-07-20T09:51:30;45.42;26.18
69464;DHT22;56665;41.106;16.688;2023-07-20T09:54:37;45.28;27.27
69464;DHT22;56665;41.106;16.688;2023-07-20T09:57:41;44.77;28.13
69464;DHT22;56665;41.106;16.688;2023-07-20T10:00:46;44.36;27.69
69464;DHT22;56665;41.106;16.688;2023-07-20T10:03:54;43.52;29.13
69464;DHT22;56665;41.106;16.688;2023-07-20T10:06:59;43.08;29.25
69464;DHT22;56665;41.106;16.688;2023-07-20T10:10:06;43.21;29.34
69464;DHT22;56665;41.106;16.688;2023-07-20T10:13:17;43.51;29.27
69464;DHT22;56665;41.106;16.688;2023-07-20T10:16:35;43.78;29.37
69464;DHT22;56665;41.106;16.688;2023-07-20T10:19:51;43.66;29.26
69464;DHT22;56665;41.106;16.688;2023-07-20T10:22:58;42.90;29.74
69464;DHT22;56665;41.106;16.688;2023-07-20T10:26:04;43.17;30.08
69464;DHT22;56665;41.106;16.688;2023-07-20T10:29:07;43.05;30.88
69464;DHT22;56665;41.106;16.688;2023-07-20T10:32:11;42.77;31.15
69464;DHT22;56665;41.106;16.688;2023-07-20T10:35:18;42.85;31.71
69464;DHT22;56665;41.106;16.688;2023-07-20T10:41:49;42.25;32.89
69464;DHT22;56665;41.106;16.688;2023-07-20T10:44:52;42.42;32.82
69464;DHT22;56665;41.106;16.688;2023-07-20T10:47:56;42.22;33.08
69464;DHT22;56665;41.106;16.688;2023-07-20T10:51:20;42.05;32.81
69464;DHT22;56665;41.106;16.688;2023-07-20T10:57:31;41.74;34.60
69464;DHT22;56665;41.106;16.688;2023-07-20T11:00:35;41.65;34.60
69464;DHT22;56665;41.106;16.688;2023-07-20T11:03:39;41.71;36.05
69464;DHT22;56665;41.106;16.688;2023-07-20T11:06:44;41.64;36.34
69464;DHT22;56665;41.106;16.688;2023-07-20T11:09:48;41.51;36.37
69464;DHT22;56665;41.106;16.688;2023-07-20T11:13:21;40.99;38.04
69464;DHT22;56665;41.106;16.688;2023-07-20T11:16:37;40.79;38.62
69464;DHT22;56665;41.106;16.688;2023-07-20T11:19:41;40.99;37.98
69464;DHT22;56665;41.106;16.688;2023-07-20T11:22:46;41.00;37.73
69464;DHT22;56665;41.106;16.688;2023-07-20T11:25:50;40.66;37.79
69464;DHT22;56665;41.106;16.688;2023-07-20T11:28:54;40.67;37.51
69464;DHT22;56665;41.106;16.688;2023-07-20T11:31:57;40.31;37.89
69464;DHT22;56665;41.106;16.688;2023-07-20T11:35:04;39.77;37.61
69464;DHT22;56665;41.106;16.688;2023-07-20T11:38:07;39.87;37.54
69464;DHT22;56665;41.106;16.688;2023-07-20T11:41:12;40.31;36.39
69464;DHT22;56665;41.106;16.688;2023-07-20T11:44:17;40.24;35.16
69464;DHT22;56665;41.106;16.688;2023-07-20T11:47:20;40.79;35.53
69464;DHT22;56665;41.106;16.688;2023-07-20T11:50:25;41.04;36.91
69464;DHT22;56665;41.106;16.688;2023-07-20T11:53:31;40.75;36.51
69464;DHT22;56665;41.106;16.688;2023-07-20T11:56:36;40.59;36.61
69464;DHT22;56665;41.106;16.688;2023-07-20T11:59:57;40.12;37.84
69464;DHT22;56665;41.106;16.688;2023-07-20T12:03:05;40.31;38.41
69464;DHT22;56665;41.106;16.688;2023-07-20T12:06:10;40.52;37.82
69464;DHT22;56665;41.106;16.688;2023-07-20T12:09:16;40.48;38.67
69464;DHT22;56665;41.106;16.688;2023-07-20T12:12:20;40.69;37.76
69464;DHT22;56665;41.106;16.688;2023-07-20T12:15:25;40.96;36.33
69464;DHT22;56665;41.106;16.688;2023-07-20T12:18:36;41.00;36.54
69464;DHT22;56665;41.106;16.688;2023-07-20T12:21:41;40.92;36.60
69464;DHT22;56665;41.106;16.688;2023-07-20T12:24:45;40.56;36.53
69464;DHT22;56665;41.106;16.688;2023-07-20T12:27:49;40.66;36.92
69464;DHT22;56665;41.106;16.688;2023-07-20T12:30:52;40.70;36.57
69464;DHT22;56665;41.106;16.688;2023-07-20T12:34:00;40.99;35.78
69464;DHT22;56665;41.106;16.688;2023-07-20T12:37:04;41.11;35.97
69464;DHT22;56665;41.106;16.688;2023-07-20T12:40:08;41.07;35.11
69464;DHT22;56665;41.106;16.688;2023-07-20T12:43:13;41.14;34.33
69464;DHT22;56665;41.106;16.688;2023-07-20T12:46:17;41.09;35.15
69464;DHT22;56665;41.106;16.688;2023-07-20T12:49:22;41.14;35.48
69464;DHT22;56665;41.106;16.688;2023-07-20T12:52:26;40.89;35.61
69464;DHT22;56665;41.106;16.688;2023-07-20T12:55:29;40.96;35.78
69464;DHT22;56665;41.106;16.688;2023-07-20T12:58:33;40.97;36.13
69464;DHT22;56665;41.106;16.688;2023-07-20T13:01:38;40.82;36.63
69464;DHT22;56665;41.106;16.688;2023-07-20T13:04:42;40.97;35.84
69464;DHT22;56665;41.106;16.688;2023-07-20T13:07:45;41.02;35.86
69464;DHT22;56665;41.106;16.688;2023-07-20T13:10:49;40.60;36.13
69464;DHT22;56665;41.106;16.688;2023-07-20T13:13:53;40.31;36.37
69464;DHT22;56665;41.106;16.688;2023-07-20T13:16:57;40.14;35.95
69464;DHT22;56665;41.106;16.688;2023-07-20T13:20:02;40.01;36.31
69464;DHT22;56665;41.106;16.688;2023-07-20T13:23:09;40.02;34.53
69464;DHT22;56665;41.106;16.688;2023-07-20T13:26:13;40.01;35.52
69464;DHT22;56665;41.106;16.688;2023-07-20T13:29:17;39.76;35.72
69464;DHT22;56665;41.106;16.688;2023-07-20T13:32:22;39.45;35.84
69464;DHT22;56665;41.106;16.688;2023-07-20T13:35:25;39.67;36.43
69464;DHT22;56665;41.106;16.688;2023-07-20T13:38:29;39.81;36.75
69464;DHT22;56665;41.106;16.688;2023-07-20T13:41:32;39.90;37.16
69464;DHT22;56665;41.106;16.688;2023-07-20T13:44:39;39.59;37.67
69464;DHT22;56665;41.106;16.688;2023-07-20T13:47:42;39.03;38.38
69464;DHT22;56665;41.106;16.688;2023-07-20T13:50:46;39.39;38.53
69464;DHT22;56665;41.106;16.688;2023-07-20T13:53:50;39.70;38.65
69464;DHT22;56665;41.106;16.688;2023-07-20T13:56:53;39.94;36.37
69464;DHT22;56665;41.106;16.688;2023-07-20T13:59:57;40.01;36.69
69464;DHT22;56665;41.106;16.688;2023-07-20T14:03:03;40.02;36.30
69464;DHT22;56665;41.106;16.688;2023-07-20T14:06:07;40.01;37.53
69464;DHT22;56665;41.106;16.688;2023-07-20T14:09:10;39.98;37.29
69464;DHT22;56665;41.106;16.688;2023-07-20T14:12:14;39.97;37.45
69464;DHT22;56665;41.106;16.688;2023-07-20T14:15:18;39.71;37.53
69464;DHT22;56665;41.106;16.688;2023-07-20T14:18:23;39.43;37.38
69464;DHT22;56665;41.106;16.688;2023-07-20T14:21:27;39.60;37.75
69464;DHT22;56665;41.106;16.688;2023-07-20T14:24:32;39.73;37.10
69464;DHT22;56665;41.106;16.688;2023-07-20T14:27:35;39.74;36.85
69464;DHT22;56665;41.106;16.688;2023-07-20T14:30:39;39.70;37.53
69464;DHT22;56665;41.106;16.688;2023-07-20T14:33:43;39.80;37.53
69464;DHT22;56665;41.106;16.688;2023-07-20T14:36:47;39.74;38.33
69464;DHT22;56665;41.106;16.688;2023-07-20T14:39:50;39.68;37.77
69464;DHT22;56665;41.106;16.688;2023-07-20T14:42:55;39.53;36.92
69464;DHT22;56665;41.106;16.688;2023-07-20T14:45:59;39.37;37.39
69464;DHT22;56665;41.106;16.688;2023-07-20T14:49:03;39.35;37.63
69464;DHT22;56665;41.106;16.688;2023-07-20T14:52:07;39.22;38.67
69464;DHT22;56665;41.106;16.688;2023-07-20T14:55:11;39.05;38.74
69464;DHT22;56665;41.106;16.688;2023-07-20T14:58:14;38.89;40.37
69464;DHT22;56665;41.106;16.688;2023-07-20T15:01:18;38.89;40.06
69464;DHT22;56665;41.106;16.688;2023-07-20T15:04:22;38.50;39.85
69464;DHT22;56665;41.106;16.688;2023-07-20T15:07:25;38.42;39.96
69464;DHT22;56665;41.106;16.688;2023-07-20T15:10:29;38.20;40.38
69464;DHT22;56665;41.106;16.688;2023-07-20T15:13:33;37.70;42.70
69464;DHT22;56665;41.106;16.688;2023-07-20T15:16:36;37.47;41.48
69464;DHT22;56665;41.106;16.688;2023-07-20T15:19:40;37.25;41.08
69464;DHT22;56665;41.106;16.688;2023-07-20T15:22:44;37.21;42.89
69464;DHT22;56665;41.106;16.688;2023-07-20T15:25:48;37.11;42.84
69464;DHT22;56665;41.106;16.688;2023-07-20T15:28:51;37.08;40.83
69464;DHT22;56665;41.106;16.688;2023-07-20T15:31:55;37.08;41.90
69464;DHT22;56665;41.106;16.688;2023-07-20T15:34:59;37.04;42.97
69464;DHT22;56665;41.106;16.688;2023-07-20T15:38:03;37.11;42.96
69464;DHT22;56665;41.106;16.688;2023-07-20T15:41:07;37.10;44.41
69464;DHT22;56665;41.106;16.688;2023-07-20T15:44:12;36.92;45.91
69464;DHT22;56665;41.106;16.688;2023-07-20T15:47:16;36.88;47.69
69464;DHT22;56665;41.106;16.688;2023-07-20T15:50:20;36.51;49.07
69464;DHT22;56665;41.106;16.688;2023-07-20T15:53:24;36.36;49.52
69464;DHT22;56665;41.106;16.688;2023-07-20T15:56:27;36.15;50.21
69464;DHT22;56665;41.106;16.688;2023-07-20T15:59:31;36.06;50.70
69464;DHT22;56665;41.106;16.688;2023-07-20T16:02:36;35.88;52.18
69464;DHT22;56665;41.106;16.688;2023-07-20T16:05:40;35.66;53.14
69464;DHT22;56665;41.106;16.688;2023-07-20T16:08:44;35.55;53.36
69464;DHT22;56665;41.106;16.688;2023-07-20T16:11:48;35.49;53.56
69464;DHT22;56665;41.106;16.688;2023-07-20T16:14:52;35.54;52.38
69464;DHT22;56665;41.106;16.688;2023-07-20T16:17:56;35.52;50.54
69464;DHT22;56665;41.106;16.688;2023-07-20T16:21:00;35.45;50.20
69464;DHT22;56665;41.106;16.688;2023-07-20T16:24:04;35.20;51.54
69464;DHT22;56665;41.106;16.688;2023-07-20T16:27:07;35.04;50.90
69464;DHT22;56665;41.106;16.688;2023-07-20T16:30:11;35.01;49.37
69464;DHT22;56665;41.106;16.688;2023-07-20T16:33:16;34.98;51.46
69464;DHT22;56665;41.106;16.688;2023-07-20T16:36:20;34.91;52.18
69464;DHT22;56665;41.106;16.688;2023-07-20T16:39:25;34.91;54.54
69464;DHT22;56665;41.106;16.688;2023-07-20T16:42:30;34.77;55.57
69464;DHT22;56665;41.106;16.688;2023-07-20T16:45:34;34.63;55.98
69464;DHT22;56665;41.106;16.688;2023-07-20T17:03:36;34.52;55.56
69464;DHT22;56665;41.106;16.688;2023-07-20T17:06:41;34.39;54.07
69464;DHT22;56665;41.106;16.688;2023-07-20T17:09:44;34.28;56.23
69464;DHT22;56665;41.106;16.688;2023-07-20T17:12:49;34.05;55.28
69464;DHT22;56665;41.106;16.688;2023-07-20T17:15:54;33.88;57.48
69464;DHT22;56665;41.106;16.688;2023-07-20T17:18:59;33.81;57.51
69464;DHT22;56665;41.106;16.688;2023-07-20T17:22:05;33.74;57.21
69464;DHT22;56665;41.106;16.688;2023-07-20T17:25:09;33.75;56.89
69464;DHT22;56665;41.106;16.688;2023-07-20T17:28:14;33.78;55.56
69464;DHT22;56665;41.106;16.688;2023-07-20T17:31:18;33.84;55.25
69464;DHT22;56665;41.106;16.688;2023-07-20T17:34:23;33.88;53.99
69464;DHT22;56665;41.106;16.688;2023-07-20T17:37:29;33.87;53.43
69464;DHT22;56665;41.106;16.688;2023-07-20T17:40:33;33.72;52.97
69464;DHT22;56665;41.106;16.688;2023-07-20T17:43:37;33.60;53.48
69464;DHT22;56665;41.106;16.688;2023-07-20T17:46:42;33.55;53.73
69464;DHT22;56665;41.106;16.688;2023-07-20T17:49:46;33.51;53.10
69464;DHT22;56665;41.106;16.688;2023-07-20T17:52:52;33.50;53.00
69464;DHT22;56665;41.106;16.688;2023-07-20T17:55:57;33.44;53.56
69464;DHT22;56665;41.106;16.688;2023-07-20T17:59:00;33.39;54.72
69464;DHT22;56665;41.106;16.688;2023-07-20T18:02:05;33.34;55.42
69464;DHT22;56665;41.106;16.688;2023-07-20T18:05:09;33.29;56.38
69464;DHT22;56665;41.106;16.688;2023-07-20T18:08:17;33.29;56.74
69464;DHT22;56665;41.106;16.688;2023-07-20T18:11:21;33.35;57.08
69464;DHT22;56665;41.106;16.688;2023-07-20T18:14:25;33.51;56.72
69464;DHT22;56665;41.106;16.688;2023-07-20T18:17:32;33.55;56.70
69464;DHT22;56665;41.106;16.688;2023-07-20T18:20:36;33.71;56.25
69464;DHT22;56665;41.106;16.688;2023-07-20T18:23:40;33.77;56.86
69464;DHT22;56665;41.106;16.688;2023-07-20T18:26:44;33.87;55.85
69464;DHT22;56665;41.106;16.688;2023-07-20T18:29:51;33.80;55.95
69464;DHT22;56665;41.106;16.688;2023-07-20T18:32:56;33.82;56.01
69464;DHT22;56665;41.106;16.688;2023-07-20T18:36:00;33.81;55.95
69464;DHT22;56665;41.106;16.688;2023-07-20T18:39:05;33.80;56.20
69464;DHT22;56665;41.106;16.688;2023-07-20T18:42:09;33.81;56.27
69464;DHT22;56665;41.106;16.688;2023-07-20T18:45:12;33.82;56.22
69464;DHT22;56665;41.106;16.688;2023-07-20T18:48:16;33.81;56.25
69464;DHT22;56665;41.106;16.688;2023-07-20T18:51:22;33.57;56.81
69464;DHT22;56665;41.106;16.688;2023-07-20T18:54:25;33.37;57.35
69464;DHT22;56665;41.106;16.688;2023-07-20T18:57:30;33.17;57.90
69464;DHT22;56665;41.106;16.688;2023-07-20T19:00:34;33.02;58.09
69464;DHT22;56665;41.106;16.688;2023-07-20T19:03:38;32.92;58.26
69464;DHT22;56665;41.106;16.688;2023-07-20T19:06:43;32.82;58.50
69464;DHT22;56665;41.106;16.688;2023-07-20T19:09:47;32.78;58.23
69464;DHT22;56665;41.106;16.688;2023-07-20T19:12:51;32.72;57.94
69464;DHT22;56665;41.106;16.688;2023-07-20T19:15:54;32.66;57.90
69464;DHT22;56665;41.106;16.688;2023-07-20T19:19:02;32.61;58.65
69464;DHT22;56665;41.106;16.688;2023-07-20T19:22:07;32.54;59.04
69464;DHT22;56665;41.106;16.688;2023-07-20T19:25:11;32.51;59.93
69464;DHT22;56665;41.106;16.688;2023-07-20T19:28:16;32.45;61.14
69464;DHT22;56665;41.106;16.688;2023-07-20T19:31:21;32.42;61.28
69464;DHT22;56665;41.106;16.688;2023-07-20T19:34:25;32.35;62.03
69464;DHT22;56665;41.106;16.688;2023-07-20T19:37:29;32.35;62.44
69464;DHT22;56665;41.106;16.688;2023-07-20T19:40:33;32.25;61.65
69464;DHT22;56665;41.106;16.688;2023-07-20T19:43:36;32.21;62.12